Time,TemperatureF,DewpointF,PressureIn,WindDirection,WindDirectionDegrees,WindSpeedMPH,WindSpeedGustMPH,Humidity,HourlyPrecipIn,Conditions,Clouds,dailyrainin,SoftwareType,DateUTC
2013-05-17 00:01:00,53.4,45.0,29.98,NE,40,0.0,0.0,73,0.00,,,0.00,WeatherCatV1.15B25,2013-05-17 04:01:00,
2013-05-17 00:02:00,53.4,45.0,29.98,NE,40,0.0,0.0,73,0.00,,,0.00,WeatherCatV1.15B25,2013-05-17 04:02:00,
2013-05-17 00:03:00,53.4,45.0,29.98,NE,40,0.0,0.0,73,0.00,,,0.00,WeatherCatV1.15B25,2013-05-17 04:03:00,
2013-05-17 00:04:00,53.3,44.9,29.98,NE,40,0.0,0.0,73,0.00,,,0.00,WeatherCatV1.15B25,2013-05-17 04:04:00,
2013-05-17 00:05:00,53.3,45.2,29.98,NE,40,0.0,0.0,74,0.00,,,0.00,WeatherCatV1.15B25,2013-05-17 04:05:00,
2013-05-17 00:10:00,53.2,45.1,29.98,NE,40,0.0,0.0,74,0.00,,,0.00,WeatherCatV1.15B25,2013-05-17 04:10:00,
2013-05-17 00:15:00,53.1,45.0,29.99,NE,40,0.0,0.0,74,0.00,,,0.00,WeatherCatV1.15B25,2013-05-17 04:15:00,
2013-05-17 00:20:00,52.9,45.2,29.99,NE,40,0.0,0.0,75,0.00,,,0.00,WeatherCatV1.15B25,2013-05-17 04:20:00,
2013-05-17 00:25:00,52.9,45.2,29.99,NE,40,0.0,0.0,75,0.00,,,0.00,WeatherCatV1.15B25,2013-05-17 04:25:00,
2013-05-17 00:30:00,52.9,45.5,29.99,NE,40,0.0,0.0,76,0.00,,,0.00,WeatherCatV1.15B25,2013-05-17 04:30:00,
2013-05-17 00:35:00,53.3,45.6,29.99,NE,40,0.0,0.0,75,0.00,,,0.00,WeatherCatV1.15B25,2013-05-17 04:35:00,
2013-05-17 00:40:00,53.4,45.7,30.00,NE,40,0.0,0.0,75,0.00,,,0.00,WeatherCatV1.15B25,2013-05-17 04:40:00,
2013-05-17 00:45:00,53.5,46.1,30.00,NE,40,0.0,0.0,76,0.00,,,0.00,WeatherCatV1.15B25,2013-05-17 04:45:00,
2013-05-17 00:50:00,53.4,46.0,30.00,NE,40,0.0,0.0,76,0.00,,,0.00,WeatherCatV1.15B25,2013-05-17 04:50:00,
2013-05-17 00:55:00,53.4,46.4,30.00,NE,40,0.0,0.0,77,0.00,,,0.00,WeatherCatV1.15B25,2013-05-17 04:55:00,
2013-05-17 01:00:00,53.2,46.2,30.00,NE,40,0.0,0.0,77,0.00,,,0.00,WeatherCatV1.15B25,2013-05-17 05:00:00,
2013-05-17 01:05:00,52.9,46.2,30.00,NE,40,0.0,0.0,78,0.00,,,0.00,WeatherCatV1.15B25,2013-05-17 05:05:00,
2013-05-17 01:10:00,52.7,46.0,30.00,NE,40,0.0,0.0,78,0.00,,,0.00,WeatherCatV1.15B25,2013-05-17 05:10:00,
2013-05-17 01:15:00,52.4,45.7,30.00,NE,40,0.0,0.0,78,0.00,,,0.00,WeatherCatV1.15B25,2013-05-17 05:15:00,
2013-05-17 01:20:00,52.3,46.0,30.00,NE,40,0.0,0.0,79,0.00,,,0.00,WeatherCatV1.15B25,2013-05-17 05:20:00,
2013-05-17 01:25:00,52.2,45.9,30.00,NE,40,0.0,0.0,79,0.00,,,0.00,WeatherCatV1.15B25,2013-05-17 05:25:00,
2013-05-17 01:30:00,52.1,45.8,30.00,NE,40,0.0,0.0,79,0.00,,,0.00,WeatherCatV1.15B25,2013-05-17 05:30:00,
2013-05-17 01:35:00,51.9,45.6,30.01,NE,40,0.0,0.0,79,0.00,,,0.00,WeatherCatV1.15B25,2013-05-17 05:35:00,
2013-05-17 01:40:00,51.8,45.5,30.01,NE,40,0.0,0.0,79,0.00,,,0.00,WeatherCatV1.15B25,2013-05-17 05:40:00,
2013-05-17 01:45:00,52.0,45.4,30.01,NE,40,0.0,1.0,78,0.00,,,0.00,WeatherCatV1.15B25,2013-05-17 05:45:00,
2013-05-17 01:50:00,52.7,45.3,30.01,NNE,25,3.0,5.0,76,0.00,,,0.00,WeatherCatV1.15B25,2013-05-17 05:50:00,
2013-05-17 01:55:00,54.5,46.0,30.01,NNE,21,0.0,8.0,73,0.00,,,0.00,WeatherCatV1.15B25,2013-05-17 05:55:00,
2013-05-17 02:00:00,55.5,45.9,30.01,NNW,340,3.0,4.0,70,0.00,,,0.00,WeatherCatV1.15B25,2013-05-17 06:00:00,
2013-05-17 02:05:00,55.9,45.1,30.01,North,350,1.0,3.0,67,0.00,,,0.00,WeatherCatV1.15B25,2013-05-17 06:05:00,
2013-05-17 02:10:00,55.8,44.6,30.01,NNE,24,2.0,3.0,66,0.00,,,0.00,WeatherCatV1.15B25,2013-05-17 06:10:00,
2013-05-17 02:15:00,55.6,44.4,30.01,NE,56,0.0,2.0,66,0.00,,,0.00,WeatherCatV1.15B25,2013-05-17 06:15:00,
2013-05-17 02:20:00,55.4,44.6,30.01,NE,40,0.0,0.0,67,0.00,,,0.00,WeatherCatV1.15B25,2013-05-17 06:20:00,
2013-05-17 02:25:00,55.2,44.0,30.01,NE,37,2.0,6.0,66,0.00,,,0.00,WeatherCatV1.15B25,2013-05-17 06:25:00,
2013-05-17 02:30:00,55.2,44.0,30.01,NNE,29,0.0,4.0,66,0.00,,,0.00,WeatherCatV1.15B25,2013-05-17 06:30:00,
2013-05-17 02:35:00,55.1,43.9,30.01,NNE,29,0.0,2.0,66,0.00,,,0.00,WeatherCatV1.15B25,2013-05-17 06:35:00,
2013-05-17 02:40:00,55.0,44.6,30.01,NNW,348,0.0,2.0,68,0.00,,,0.00,WeatherCatV1.15B25,2013-05-17 06:40:00,
2013-05-17 02:45:00,55.0,43.5,30.01,NNW,330,0.0,0.0,65,0.00,,,0.00,WeatherCatV1.15B25,2013-05-17 06:45:00,
2013-05-17 02:50:00,54.9,43.4,30.01,ENE,59,0.0,2.0,65,0.00,,,0.00,WeatherCatV1.15B25,2013-05-17 06:50:00,
2013-05-17 02:55:00,54.8,43.3,30.01,North,355,2.0,3.0,65,0.00,,,0.00,WeatherCatV1.15B25,2013-05-17 06:55:00,
2013-05-17 03:00:00,54.9,43.0,30.01,North,355,0.0,6.0,64,0.00,,,0.00,WeatherCatV1.15B25,2013-05-17 07:00:00,
2013-05-17 03:05:00,54.9,42.5,30.02,NNE,26,0.0,4.0,63,0.00,,,0.00,WeatherCatV1.15B25,2013-05-17 07:05:00,
2013-05-17 03:10:00,54.7,42.8,30.03,WSW,257,0.0,0.0,64,0.00,,,0.00,WeatherCatV1.15B25,2013-05-17 07:10:00,
2013-05-17 03:15:00,54.5,42.6,30.03,NNE,24,2.0,2.0,64,0.00,,,0.00,WeatherCatV1.15B25,2013-05-17 07:15:00,
2013-05-17 03:20:00,54.4,42.5,30.02,North,0,0.0,4.0,64,0.00,,,0.00,WeatherCatV1.15B25,2013-05-17 07:20:00,
2013-05-17 03:25:00,54.3,42.4,30.02,NE,36,0.0,1.0,64,0.00,,,0.00,WeatherCatV1.15B25,2013-05-17 07:25:00,
2013-05-17 03:30:00,54.2,42.3,30.03,NW,325,2.0,3.0,64,0.00,,,0.00,WeatherCatV1.15B25,2013-05-17 07:30:00,
2013-05-17 03:35:00,54.1,42.2,30.03,NNW,329,0.0,0.0,64,0.00,,,0.00,WeatherCatV1.15B25,2013-05-17 07:35:00,
2013-05-17 03:40:00,54.0,42.5,30.03,NNW,329,0.0,0.0,65,0.00,,,0.00,WeatherCatV1.15B25,2013-05-17 07:40:00,
2013-05-17 03:45:00,53.8,42.3,30.03,NNW,329,0.0,0.0,65,0.00,,,0.00,WeatherCatV1.15B25,2013-05-17 07:45:00,
2013-05-17 03:50:00,53.8,43.1,30.02,NNW,329,0.0,3.0,67,0.00,,,0.00,WeatherCatV1.15B25,2013-05-17 07:50:00,
2013-05-17 03:55:00,53.6,43.7,30.03,North,0,0.0,0.0,69,0.00,,,0.00,WeatherCatV1.15B25,2013-05-17 07:55:00,
2013-05-17 04:00:00,53.6,44.1,30.02,North,0,0.0,2.0,70,0.00,,,0.00,WeatherCatV1.15B25,2013-05-17 08:00:00,
2013-05-17 04:05:00,53.4,44.6,30.02,North,0,0.0,2.0,72,0.00,,,0.00,WeatherCatV1.15B25,2013-05-17 08:05:00,
2013-05-17 04:10:00,53.3,45.2,30.02,NNW,347,0.0,0.0,74,0.00,,,0.00,WeatherCatV1.15B25,2013-05-17 08:10:00,
2013-05-17 04:15:00,53.2,45.1,30.03,NNW,347,0.0,1.0,74,0.00,,,0.00,WeatherCatV1.15B25,2013-05-17 08:15:00,
2013-05-17 04:20:00,53.1,45.4,30.03,NNE,13,0.0,3.0,75,0.00,,,0.00,WeatherCatV1.15B25,2013-05-17 08:20:00,
2013-05-17 04:25:00,53.1,45.4,30.03,NNE,23,1.0,4.0,75,0.00,,,0.00,WeatherCatV1.15B25,2013-05-17 08:25:00,
2013-05-17 04:30:00,53.0,45.3,30.03,NNE,22,0.0,2.0,75,0.00,,,0.00,WeatherCatV1.15B25,2013-05-17 08:30:00,
2013-05-17 04:35:00,52.9,45.2,30.03,NE,36,0.0,2.0,75,0.00,,,0.00,WeatherCatV1.15B25,2013-05-17 08:35:00,
2013-05-17 04:40:00,52.7,45.0,30.03,NE,36,0.0,0.0,75,0.00,,,0.00,WeatherCatV1.15B25,2013-05-17 08:40:00,
2013-05-17 04:45:00,52.6,45.3,30.04,NE,36,0.0,0.0,76,0.00,,,0.00,WeatherCatV1.15B25,2013-05-17 08:45:00,
2013-05-17 04:50:00,52.5,45.2,30.04,NE,36,0.0,0.0,76,0.00,,,0.00,WeatherCatV1.15B25,2013-05-17 08:50:00,
2013-05-17 04:55:00,52.3,44.6,30.05,NE,36,0.0,0.0,75,0.00,,,0.00,WeatherCatV1.15B25,2013-05-17 08:55:00,
2013-05-17 05:00:00,52.1,44.8,30.05,NE,36,0.0,0.0,76,0.00,,,0.00,WeatherCatV1.15B25,2013-05-17 09:00:00,
2013-05-17 05:05:00,51.9,44.6,30.04,NE,36,0.0,0.0,76,0.00,,,0.00,WeatherCatV1.15B25,2013-05-17 09:05:00,
2013-05-17 05:10:00,51.7,44.4,30.05,NE,36,0.0,0.0,76,0.00,,,0.00,WeatherCatV1.15B25,2013-05-17 09:10:00,
2013-05-17 05:15:00,51.5,44.2,30.05,NE,36,0.0,0.0,76,0.00,,,0.00,WeatherCatV1.15B25,2013-05-17 09:15:00,
2013-05-17 05:20:00,51.3,44.0,30.05,NE,36,0.0,0.0,76,0.00,,,0.00,WeatherCatV1.15B25,2013-05-17 09:20:00,
2013-05-17 05:25:00,51.0,43.7,30.06,NE,36,0.0,0.0,76,0.00,,,0.00,WeatherCatV1.15B25,2013-05-17 09:25:00,
2013-05-17 05:30:00,50.9,43.6,30.06,NE,36,0.0,0.0,76,0.00,,,0.00,WeatherCatV1.15B25,2013-05-17 09:30:00,
2013-05-17 05:35:00,50.7,43.4,30.06,NE,36,0.0,0.0,76,0.00,,,0.00,WeatherCatV1.15B25,2013-05-17 09:35:00,
2013-05-17 05:40:00,50.6,43.3,30.06,NE,36,0.0,0.0,76,0.00,,,0.00,WeatherCatV1.15B25,2013-05-17 09:40:00,
2013-05-17 05:45:00,50.5,43.2,30.06,NE,36,0.0,2.0,76,0.00,,,0.00,WeatherCatV1.15B25,2013-05-17 09:45:00,
2013-05-17 05:50:00,50.4,43.1,30.06,NE,36,0.0,0.0,76,0.00,,,0.00,WeatherCatV1.15B25,2013-05-17 09:50:00,
2013-05-17 05:55:00,50.3,43.0,30.07,NE,36,0.0,0.0,76,0.00,,,0.00,WeatherCatV1.15B25,2013-05-17 09:55:00,
2013-05-17 06:00:00,50.2,42.9,30.07,NE,36,0.0,0.0,76,0.00,,,0.00,WeatherCatV1.15B25,2013-05-17 10:00:00,
2013-05-17 06:05:00,50.0,42.4,30.07,NE,36,0.0,0.0,75,0.00,,,0.00,WeatherCatV1.15B25,2013-05-17 10:05:00,
2013-05-17 06:10:00,50.1,42.5,30.07,North,0,0.0,0.0,75,0.00,,,0.00,WeatherCatV1.15B25,2013-05-17 10:10:00,
2013-05-17 06:15:00,50.1,42.5,30.07,North,0,0.0,0.0,75,0.00,,,0.00,WeatherCatV1.15B25,2013-05-17 10:15:00,
2013-05-17 06:20:00,50.1,42.1,30.07,NNW,343,0.0,2.0,74,0.00,,,0.00,WeatherCatV1.15B25,2013-05-17 10:20:00,
2013-05-17 06:25:00,50.3,42.0,30.08,NNW,344,0.0,1.0,73,0.00,,,0.00,WeatherCatV1.15B25,2013-05-17 10:25:00,
2013-05-17 06:30:00,50.4,42.1,30.08,NNW,344,0.0,0.0,73,0.00,,,0.00,WeatherCatV1.15B25,2013-05-17 10:30:00,
2013-05-17 06:35:00,50.5,42.2,30.08,NNW,344,0.0,0.0,73,0.00,,,0.00,WeatherCatV1.15B25,2013-05-17 10:35:00,
2013-05-17 06:40:00,50.6,41.9,30.08,ENE,63,0.0,0.0,72,0.00,,,0.00,WeatherCatV1.15B25,2013-05-17 10:40:00,
2013-05-17 06:45:00,50.7,42.0,30.08,ENE,63,0.0,0.0,72,0.00,,,0.00,WeatherCatV1.15B25,2013-05-17 10:45:00,
2013-05-17 06:50:00,50.9,41.8,30.09,ENE,63,0.0,0.0,71,0.00,,,0.00,WeatherCatV1.15B25,2013-05-17 10:50:00,
2013-05-17 06:55:00,51.1,42.0,30.09,ENE,63,0.0,0.0,71,0.00,,,0.00,WeatherCatV1.15B25,2013-05-17 10:55:00,
2013-05-17 07:00:00,51.3,41.9,30.09,ENE,63,0.0,0.0,70,0.00,,,0.00,WeatherCatV1.15B25,2013-05-17 11:00:00,
2013-05-17 07:05:00,51.5,42.0,30.10,North,5,0.0,0.0,70,0.00,,,0.00,WeatherCatV1.15B25,2013-05-17 11:05:00,
2013-05-17 07:10:00,51.7,41.9,30.09,North,5,1.0,2.0,69,0.00,,,0.00,WeatherCatV1.15B25,2013-05-17 11:10:00,
2013-05-17 07:15:00,52.0,42.1,30.09,East,93,0.0,0.0,69,0.00,,,0.00,WeatherCatV1.15B25,2013-05-17 11:15:00,
2013-05-17 07:20:00,52.3,42.1,30.09,NNE,24,0.0,3.0,68,0.00,,,0.00,WeatherCatV1.15B25,2013-05-17 11:20:00,
2013-05-17 07:25:00,52.5,42.2,30.09,NNE,24,0.0,2.0,68,0.00,,,0.00,WeatherCatV1.15B25,2013-05-17 11:25:00,
2013-05-17 07:30:00,52.7,42.4,30.09,NNE,24,0.0,0.0,68,0.00,,,0.00,WeatherCatV1.15B25,2013-05-17 11:30:00,
2013-05-17 07:35:00,53.0,42.7,30.10,NNE,24,0.0,0.0,68,0.00,,,0.00,WeatherCatV1.15B25,2013-05-17 11:35:00,
2013-05-17 07:40:00,53.1,42.8,30.10,NNW,342,0.0,1.0,68,0.00,,,0.00,WeatherCatV1.15B25,2013-05-17 11:40:00,
2013-05-17 07:45:00,53.4,43.5,30.10,East,96,0.0,1.0,69,0.00,,,0.00,WeatherCatV1.15B25,2013-05-17 11:45:00,
2013-05-17 07:50:00,53.7,43.0,30.10,NNE,30,0.0,3.0,67,0.00,,,0.00,WeatherCatV1.15B25,2013-05-17 11:50:00,
2013-05-17 07:55:00,53.9,43.2,30.10,NNE,17,3.0,5.0,67,0.00,,,0.00,WeatherCatV1.15B25,2013-05-17 11:55:00,
2013-05-17 08:00:00,54.3,43.2,30.11,NE,40,2.0,3.0,66,0.00,,,0.00,WeatherCatV1.15B25,2013-05-17 12:00:00,
2013-05-17 08:05:00,54.7,43.2,30.10,NNW,340,3.0,5.0,65,0.00,,,0.00,WeatherCatV1.15B25,2013-05-17 12:05:00,
2013-05-17 08:10:00,55.1,43.1,30.10,NE,37,0.0,1.0,64,0.00,,,0.00,WeatherCatV1.15B25,2013-05-17 12:10:00,
2013-05-17 08:15:00,55.5,43.9,30.11,NE,45,1.0,3.0,65,0.00,,,0.00,WeatherCatV1.15B25,2013-05-17 12:15:00,
2013-05-17 08:20:00,56.1,44.5,30.10,NE,36,0.0,3.0,65,0.00,,,0.00,WeatherCatV1.15B25,2013-05-17 12:20:00,
2013-05-17 08:25:00,56.7,44.7,30.10,NE,36,0.0,0.0,64,0.00,,,0.00,WeatherCatV1.15B25,2013-05-17 12:25:00,
2013-05-17 08:30:00,57.2,45.9,30.10,NE,51,3.0,3.0,66,0.00,,,0.00,WeatherCatV1.15B25,2013-05-17 12:30:00,
2013-05-17 08:35:00,57.5,45.8,30.11,NNW,337,1.0,4.0,65,0.00,,,0.00,WeatherCatV1.15B25,2013-05-17 12:35:00,
2013-05-17 08:40:00,57.8,46.5,30.11,NNE,32,2.0,3.0,66,0.00,,,0.00,WeatherCatV1.15B25,2013-05-17 12:40:00,
2013-05-17 08:45:00,58.0,46.7,30.11,NE,42,1.0,1.0,66,0.00,,,0.00,WeatherCatV1.15B25,2013-05-17 12:45:00,
2013-05-17 08:50:00,58.2,46.5,30.11,ENE,67,0.0,2.0,65,0.00,,,0.00,WeatherCatV1.15B25,2013-05-17 12:50:00,
2013-05-17 08:55:00,58.4,47.5,30.11,NNW,347,0.0,2.0,67,0.00,,,0.00,WeatherCatV1.15B25,2013-05-17 12:55:00,
2013-05-17 09:00:00,58.5,48.7,30.12,NNW,340,0.0,1.0,70,0.00,,,0.00,WeatherCatV1.15B25,2013-05-17 13:00:00,
2013-05-17 09:05:00,58.2,48.1,30.12,North,350,3.0,4.0,69,0.00,,,0.00,WeatherCatV1.15B25,2013-05-17 13:05:00,
2013-05-17 09:10:00,57.6,47.9,30.12,ENE,62,0.0,3.0,70,0.00,,,0.00,WeatherCatV1.15B25,2013-05-17 13:10:00,
2013-05-17 09:15:00,57.5,47.8,30.12,North,9,0.0,4.0,70,0.00,,,0.00,WeatherCatV1.15B25,2013-05-17 13:15:00,
2013-05-17 09:20:00,57.4,47.3,30.12,NNW,345,3.0,5.0,69,0.00,,,0.00,WeatherCatV1.15B25,2013-05-17 13:20:00,
2013-05-17 09:25:00,57.1,47.4,30.12,NNW,340,0.0,6.0,70,0.00,,,0.00,WeatherCatV1.15B25,2013-05-17 13:25:00,
2013-05-17 09:30:00,57.1,47.8,30.12,NNW,346,6.0,6.0,71,0.00,,,0.00,WeatherCatV1.15B25,2013-05-17 13:30:00,
2013-05-17 09:35:00,57.3,47.6,30.12,NNW,344,5.0,5.0,70,0.00,,,0.00,WeatherCatV1.15B25,2013-05-17 13:35:00,
2013-05-17 09:40:00,57.7,48.4,30.12,North,355,0.0,1.0,71,0.00,,,0.00,WeatherCatV1.15B25,2013-05-17 13:40:00,
2013-05-17 09:45:00,57.6,47.5,30.12,NW,321,3.0,6.0,69,0.00,,,0.00,WeatherCatV1.15B25,2013-05-17 13:45:00,
2013-05-17 09:50:00,57.1,47.4,30.13,NNW,339,1.0,5.0,70,0.00,,,0.00,WeatherCatV1.15B25,2013-05-17 13:50:00,
2013-05-17 09:55:00,57.5,48.2,30.12,NNW,327,1.0,5.0,71,0.00,,,0.00,WeatherCatV1.15B25,2013-05-17 13:55:00,
2013-05-17 10:00:00,57.4,47.3,30.13,NNW,342,0.0,7.0,69,0.00,,,0.00,WeatherCatV1.15B25,2013-05-17 14:00:00,
2013-05-17 10:05:00,57.6,47.9,30.13,North,349,5.0,6.0,70,0.00,,,0.00,WeatherCatV1.15B25,2013-05-17 14:05:00,
2013-05-17 10:10:00,57.8,48.5,30.13,NNE,24,0.0,5.0,71,0.00,,,0.00,WeatherCatV1.15B25,2013-05-17 14:10:00,
2013-05-17 10:15:00,57.8,47.7,30.13,East,79,2.0,4.0,69,0.00,,,0.00,WeatherCatV1.15B25,2013-05-17 14:15:00,
2013-05-17 10:20:00,57.5,47.4,30.13,NE,36,3.0,4.0,69,0.00,,,0.00,WeatherCatV1.15B25,2013-05-17 14:20:00,
2013-05-17 10:25:00,57.8,47.7,30.13,NW,321,5.0,7.0,69,0.00,,,0.00,WeatherCatV1.15B25,2013-05-17 14:25:00,
2013-05-17 10:30:00,57.3,47.2,30.13,NE,51,0.0,2.0,69,0.00,,,0.00,WeatherCatV1.15B25,2013-05-17 14:30:00,
2013-05-17 10:35:00,57.5,46.6,30.13,NNW,346,4.0,4.0,67,0.00,,,0.00,WeatherCatV1.15B25,2013-05-17 14:35:00,
2013-05-17 10:40:00,57.5,46.6,30.14,NNW,333,0.0,3.0,67,0.00,,,0.00,WeatherCatV1.15B25,2013-05-17 14:40:00,
2013-05-17 10:45:00,58.4,47.1,30.14,NE,36,0.0,5.0,66,0.00,,,0.00,WeatherCatV1.15B25,2013-05-17 14:45:00,
2013-05-17 10:50:00,58.8,46.6,30.14,ENE,65,2.0,3.0,64,0.00,,,0.00,WeatherCatV1.15B25,2013-05-17 14:50:00,
2013-05-17 10:55:00,58.8,46.2,30.14,NNE,15,1.0,7.0,63,0.00,,,0.00,WeatherCatV1.15B25,2013-05-17 14:55:00,
2013-05-17 11:00:00,57.9,46.6,30.14,North,5,2.0,5.0,66,0.00,,,0.00,WeatherCatV1.15B25,2013-05-17 15:00:00,
2013-05-17 11:05:00,58.1,47.2,30.14,NNW,344,2.0,5.0,67,0.00,,,0.00,WeatherCatV1.15B25,2013-05-17 15:05:00,
2013-05-17 11:10:00,58.3,47.4,30.15,ENE,75,2.0,5.0,67,0.00,,,0.00,WeatherCatV1.15B25,2013-05-17 15:10:00,
2013-05-17 11:15:00,58.0,47.1,30.14,NNW,345,3.0,3.0,67,0.00,,,0.00,WeatherCatV1.15B25,2013-05-17 15:15:00,
2013-05-17 11:20:00,57.4,47.3,30.15,NNW,344,2.0,5.0,69,0.00,,,0.00,WeatherCatV1.15B25,2013-05-17 15:20:00,
2013-05-17 11:25:00,57.4,46.9,30.15,ENE,63,0.0,9.0,68,0.00,,,0.00,WeatherCatV1.15B25,2013-05-17 15:25:00,
2013-05-17 11:30:00,57.9,47.4,30.15,NE,49,3.0,7.0,68,0.00,,,0.00,WeatherCatV1.15B25,2013-05-17 15:30:00,
2013-05-17 11:35:00,58.6,47.7,30.15,NNW,331,6.0,7.0,67,0.00,,,0.00,WeatherCatV1.15B25,2013-05-17 15:35:00,
2013-05-17 11:40:00,58.2,47.7,30.15,North,0,6.0,10.0,68,0.00,,,0.00,WeatherCatV1.15B25,2013-05-17 15:40:00,
2013-05-17 11:45:00,57.8,46.5,30.15,North,5,5.0,9.0,66,0.00,,,0.00,WeatherCatV1.15B25,2013-05-17 15:45:00,
2013-05-17 11:50:00,57.7,46.8,30.15,NNW,348,5.0,6.0,67,0.00,,,0.00,WeatherCatV1.15B25,2013-05-17 15:50:00,
2013-05-17 11:55:00,58.2,46.9,30.15,North,355,1.0,10.0,66,0.00,,,0.00,WeatherCatV1.15B25,2013-05-17 15:55:00,
2013-05-17 12:00:00,57.9,45.8,30.15,NNW,329,0.0,7.0,64,0.00,,,0.00,WeatherCatV1.15B25,2013-05-17 16:00:00,
2013-05-17 12:05:00,58.9,47.6,30.15,North,0,4.0,5.0,66,0.00,,,0.00,WeatherCatV1.15B25,2013-05-17 16:05:00,
2013-05-17 12:10:00,59.1,47.8,30.15,NNE,14,0.0,6.0,66,0.00,,,0.00,WeatherCatV1.15B25,2013-05-17 16:10:00,
2013-05-17 12:15:00,58.7,46.6,30.15,NE,54,0.0,3.0,64,0.00,,,0.00,WeatherCatV1.15B25,2013-05-17 16:15:00,
2013-05-17 12:20:00,59.1,46.9,30.15,ENE,63,4.0,6.0,64,0.00,,,0.00,WeatherCatV1.15B25,2013-05-17 16:20:00,
2013-05-17 12:25:00,58.7,47.0,30.14,ENE,63,4.0,7.0,65,0.00,,,0.00,WeatherCatV1.15B25,2013-05-17 16:25:00,
2013-05-17 12:30:00,58.7,47.8,30.15,NNE,33,1.0,4.0,67,0.00,,,0.00,WeatherCatV1.15B25,2013-05-17 16:30:00,
2013-05-17 12:35:00,59.2,46.6,30.14,North,0,6.0,6.0,63,0.00,,,0.00,WeatherCatV1.15B25,2013-05-17 16:35:00,
2013-05-17 12:40:00,58.8,46.2,30.14,North,0,0.0,6.0,63,0.00,,,0.00,WeatherCatV1.15B25,2013-05-17 16:40:00,
2013-05-17 12:45:00,59.8,47.2,30.14,NNW,334,7.0,7.0,63,0.00,,,0.00,WeatherCatV1.15B25,2013-05-17 16:45:00,
2013-05-17 12:50:00,59.4,46.4,30.13,NNE,18,2.0,6.0,62,0.00,,,0.00,WeatherCatV1.15B25,2013-05-17 16:50:00,
2013-05-17 12:55:00,59.6,46.6,30.13,NNW,344,6.0,9.0,62,0.00,,,0.00,WeatherCatV1.15B25,2013-05-17 16:55:00,
2013-05-17 13:00:00,59.4,46.4,30.13,NE,46,0.0,10.0,62,0.00,,,0.00,WeatherCatV1.15B25,2013-05-17 17:00:00,
2013-05-17 13:05:00,60.5,47.8,30.13,NNW,342,3.0,4.0,63,0.00,,,0.00,WeatherCatV1.15B25,2013-05-17 17:05:00,
2013-05-17 13:10:00,60.2,46.3,30.13,NNE,30,3.0,10.0,60,0.00,,,0.00,WeatherCatV1.15B25,2013-05-17 17:10:00,
2013-05-17 13:15:00,59.5,46.0,30.14,NNE,22,5.0,7.0,61,0.00,,,0.00,WeatherCatV1.15B25,2013-05-17 17:15:00,
2013-05-17 13:20:00,59.0,46.8,30.14,NNW,329,5.0,11.0,64,0.00,,,0.00,WeatherCatV1.15B25,2013-05-17 17:20:00,
2013-05-17 13:25:00,59.5,46.9,30.14,NE,38,1.0,5.0,63,0.00,,,0.00,WeatherCatV1.15B25,2013-05-17 17:25:00,
2013-05-17 13:30:00,60.0,47.4,30.14,NNE,12,6.0,6.0,63,0.00,,,0.00,WeatherCatV1.15B25,2013-05-17 17:30:00,
2013-05-17 13:35:00,59.5,45.6,30.13,North,355,5.0,11.0,60,0.00,,,0.00,WeatherCatV1.15B25,2013-05-17 17:35:00,
2013-05-17 13:40:00,59.3,45.4,30.14,ENE,78,9.0,10.0,60,0.00,,,0.00,WeatherCatV1.15B25,2013-05-17 17:40:00,
2013-05-17 13:45:00,59.4,46.4,30.14,NNE,30,2.0,10.0,62,0.00,,,0.00,WeatherCatV1.15B25,2013-05-17 17:45:00,
2013-05-17 13:50:00,59.0,45.6,30.13,NNE,13,4.0,13.0,61,0.00,,,0.00,WeatherCatV1.15B25,2013-05-17 17:50:00,
2013-05-17 13:55:00,59.4,45.1,30.13,NNW,333,6.0,10.0,59,0.00,,,0.00,WeatherCatV1.15B25,2013-05-17 17:55:00,
2013-05-17 14:00:00,59.1,44.8,30.14,NE,46,2.0,10.0,59,0.00,,,0.00,WeatherCatV1.15B25,2013-05-17 18:00:00,
2013-05-17 14:05:00,59.5,45.2,30.13,NNW,331,4.0,12.0,59,0.00,,,0.00,WeatherCatV1.15B25,2013-05-17 18:05:00,
2013-05-17 14:10:00,59.1,44.8,30.13,North,0,3.0,9.0,59,0.00,,,0.00,WeatherCatV1.15B25,2013-05-17 18:10:00,
2013-05-17 14:15:00,59.2,44.4,30.13,NNE,12,0.0,9.0,58,0.00,,,0.00,WeatherCatV1.15B25,2013-05-17 18:15:00,
2013-05-17 14:20:00,59.2,44.9,30.13,NNW,329,3.0,12.0,59,0.00,,,0.00,WeatherCatV1.15B25,2013-05-17 18:20:00,
2013-05-17 14:25:00,59.6,44.3,30.14,ENE,78,2.0,7.0,57,0.00,,,0.00,WeatherCatV1.15B25,2013-05-17 18:25:00,
2013-05-17 14:30:00,59.6,45.3,30.14,NE,36,2.0,7.0,59,0.00,,,0.00,WeatherCatV1.15B25,2013-05-17 18:30:00,
2013-05-17 14:35:00,59.2,44.4,30.14,NE,56,0.0,6.0,58,0.00,,,0.00,WeatherCatV1.15B25,2013-05-17 18:35:00,
2013-05-17 14:40:00,59.3,45.0,30.14,NE,34,3.0,8.0,59,0.00,,,0.00,WeatherCatV1.15B25,2013-05-17 18:40:00,
2013-05-17 14:45:00,59.6,44.8,30.14,NNW,333,4.0,4.0,58,0.00,,,0.00,WeatherCatV1.15B25,2013-05-17 18:45:00,
2013-05-17 14:51:00,59.4,44.2,30.13,North,355,2.0,9.0,57,0.00,,,0.00,WeatherCatV1.15B25,2013-05-17 18:51:00,
2013-05-17 14:56:00,59.4,44.2,30.14,NNW,346,3.0,9.0,57,0.00,,,0.00,WeatherCatV1.15B25,2013-05-17 18:56:00,
2013-05-17 15:01:00,59.3,43.6,30.14,ENE,69,3.0,9.0,56,0.00,,,0.00,WeatherCatV1.15B25,2013-05-17 19:01:00,
2013-05-17 15:06:00,59.9,44.6,30.14,NNW,347,1.0,4.0,57,0.00,,,0.00,WeatherCatV1.15B25,2013-05-17 19:06:00,
2013-05-17 15:11:00,59.5,44.3,30.13,ENE,78,2.0,5.0,57,0.00,,,0.00,WeatherCatV1.15B25,2013-05-17 19:11:00,
2013-05-17 15:16:00,59.2,43.5,30.14,NNW,330,3.0,10.0,56,0.00,,,0.00,WeatherCatV1.15B25,2013-05-17 19:16:00,
2013-05-17 15:21:00,59.2,43.0,30.14,North,5,5.0,9.0,55,0.00,,,0.00,WeatherCatV1.15B25,2013-05-17 19:21:00,
2013-05-17 15:26:00,59.3,42.7,30.13,NNW,338,0.0,15.0,54,0.00,,,0.00,WeatherCatV1.15B25,2013-05-17 19:26:00,
2013-05-17 15:31:00,59.5,42.8,30.14,North,10,5.0,12.0,54,0.00,,,0.00,WeatherCatV1.15B25,2013-05-17 19:31:00,
2013-05-17 15:36:00,59.1,42.0,30.14,WNW,300,5.0,17.0,53,0.00,,,0.00,WeatherCatV1.15B25,2013-05-17 19:36:00,
2013-05-17 15:41:00,58.7,42.6,30.14,NNW,342,0.0,12.0,55,0.00,,,0.00,WeatherCatV1.15B25,2013-05-17 19:41:00,
2013-05-17 15:46:00,59.1,42.9,30.13,ENE,62,2.0,9.0,55,0.00,,,0.00,WeatherCatV1.15B25,2013-05-17 19:46:00,
2013-05-17 15:51:00,59.3,42.7,30.14,North,355,1.0,7.0,54,0.00,,,0.00,WeatherCatV1.15B25,2013-05-17 19:51:00,
2013-05-17 15:56:00,59.6,43.4,30.13,NE,41,6.0,6.0,55,0.00,,,0.00,WeatherCatV1.15B25,2013-05-17 19:56:00,
2013-05-17 16:01:00,60.1,42.9,30.13,NW,325,0.0,11.0,53,0.00,,,0.00,WeatherCatV1.15B25,2013-05-17 20:01:00,
2013-05-17 16:06:00,60.3,44.1,30.13,North,350,4.0,8.0,55,0.00,,,0.00,WeatherCatV1.15B25,2013-05-17 20:06:00,
2013-05-17 16:11:00,60.5,44.7,30.13,ENE,74,2.0,7.0,56,0.00,,,0.00,WeatherCatV1.15B25,2013-05-17 20:11:00,
2013-05-17 16:16:00,60.8,45.0,30.13,ENE,63,2.0,3.0,56,0.00,,,0.00,WeatherCatV1.15B25,2013-05-17 20:16:00,
2013-05-17 16:21:00,61.5,43.7,30.13,North,355,0.0,6.0,52,0.00,,,0.00,WeatherCatV1.15B25,2013-05-17 20:21:00,
2013-05-17 16:26:00,61.3,43.0,30.12,NNE,27,5.0,11.0,51,0.00,,,0.00,WeatherCatV1.15B25,2013-05-17 20:26:00,
2013-05-17 16:31:00,61.6,44.8,30.12,NW,319,6.0,10.0,54,0.00,,,0.00,WeatherCatV1.15B25,2013-05-17 20:31:00,
2013-05-17 16:36:00,60.8,43.6,30.12,NNW,346,6.0,12.0,53,0.00,,,0.00,WeatherCatV1.15B25,2013-05-17 20:36:00,
2013-05-17 16:41:00,60.7,43.5,30.12,NNE,32,0.0,9.0,53,0.00,,,0.00,WeatherCatV1.15B25,2013-05-17 20:41:00,
2013-05-17 16:46:00,60.8,43.6,30.12,NNW,342,3.0,9.0,53,0.00,,,0.00,WeatherCatV1.15B25,2013-05-17 20:46:00,
2013-05-17 16:51:00,60.9,44.1,30.12,NNW,330,4.0,11.0,54,0.00,,,0.00,WeatherCatV1.15B25,2013-05-17 20:51:00,
2013-05-17 16:56:00,61.2,44.4,30.11,NNW,342,6.0,10.0,54,0.00,,,0.00,WeatherCatV1.15B25,2013-05-17 20:56:00,
2013-05-17 17:01:00,61.6,44.3,30.12,East,80,5.0,9.0,53,0.00,,,0.00,WeatherCatV1.15B25,2013-05-17 21:01:00,
2013-05-17 17:06:00,61.3,44.5,30.12,NNW,345,3.0,7.0,54,0.00,,,0.00,WeatherCatV1.15B25,2013-05-17 21:06:00,
2013-05-17 17:11:00,61.3,44.5,30.12,NNE,22,5.0,7.0,54,0.00,,,0.00,WeatherCatV1.15B25,2013-05-17 21:11:00,
2013-05-17 17:16:00,61.3,44.5,30.12,NE,49,5.0,5.0,54,0.00,,,0.00,WeatherCatV1.15B25,2013-05-17 21:16:00,
2013-05-17 17:21:00,61.1,43.8,30.12,East,86,3.0,9.0,53,0.00,,,0.00,WeatherCatV1.15B25,2013-05-17 21:21:00,
2013-05-17 17:26:00,60.8,44.5,30.12,ENE,64,0.0,4.0,55,0.00,,,0.00,WeatherCatV1.15B25,2013-05-17 21:26:00,
2013-05-17 17:31:00,61.0,43.7,30.12,NNE,31,0.0,10.0,53,0.00,,,0.00,WeatherCatV1.15B25,2013-05-17 21:31:00,
2013-05-17 17:36:00,60.9,43.2,30.12,NNW,333,0.0,3.0,52,0.00,,,0.00,WeatherCatV1.15B25,2013-05-17 21:36:00,
2013-05-17 17:41:00,61.0,43.7,30.12,NE,37,0.0,6.0,53,0.00,,,0.00,WeatherCatV1.15B25,2013-05-17 21:41:00,
2013-05-17 17:46:00,61.4,43.6,30.12,NE,52,0.0,7.0,52,0.00,,,0.00,WeatherCatV1.15B25,2013-05-17 21:46:00,
2013-05-17 17:51:00,61.3,43.0,30.12,NW,318,5.0,7.0,51,0.00,,,0.00,WeatherCatV1.15B25,2013-05-17 21:51:00,
2013-05-17 17:56:00,61.2,43.4,30.13,North,355,3.0,3.0,52,0.00,,,0.00,WeatherCatV1.15B25,2013-05-17 21:56:00,
2013-05-17 18:01:00,61.3,42.5,30.12,ENE,65,3.0,9.0,50,0.00,,,0.00,WeatherCatV1.15B25,2013-05-17 22:01:00,
2013-05-17 18:06:00,61.2,42.4,30.11,NE,45,4.0,7.0,50,0.00,,,0.00,WeatherCatV1.15B25,2013-05-17 22:06:00,
2013-05-17 18:11:00,61.3,42.5,30.12,NNE,31,2.0,5.0,50,0.00,,,0.00,WeatherCatV1.15B25,2013-05-17 22:11:00,
2013-05-17 18:16:00,61.1,41.8,30.12,NE,40,4.0,6.0,49,0.00,,,0.00,WeatherCatV1.15B25,2013-05-17 22:16:00,
2013-05-17 18:21:00,61.5,42.2,30.11,NNW,331,2.0,9.0,49,0.00,,,0.00,WeatherCatV1.15B25,2013-05-17 22:21:00,
2013-05-17 18:26:00,61.7,41.8,30.12,NE,44,0.0,7.0,48,0.00,,,0.00,WeatherCatV1.15B25,2013-05-17 22:26:00,
2013-05-17 18:31:00,62.1,42.2,30.12,NE,51,2.0,4.0,48,0.00,,,0.00,WeatherCatV1.15B25,2013-05-17 22:31:00,
2013-05-17 18:36:00,61.9,41.4,30.12,North,355,4.0,6.0,47,0.00,,,0.00,WeatherCatV1.15B25,2013-05-17 22:36:00,
2013-05-17 18:41:00,62.1,42.2,30.11,NW,308,4.0,9.0,48,0.00,,,0.00,WeatherCatV1.15B25,2013-05-17 22:41:00,
2013-05-17 18:46:00,62.0,41.5,30.11,ENE,78,3.0,7.0,47,0.00,,,0.00,WeatherCatV1.15B25,2013-05-17 22:46:00,
2013-05-17 18:51:00,61.7,41.3,30.11,NE,45,1.0,6.0,47,0.00,,,0.00,WeatherCatV1.15B25,2013-05-17 22:51:00,
2013-05-17 18:56:00,61.5,41.1,30.11,NNE,24,0.0,5.0,47,0.00,,,0.00,WeatherCatV1.15B25,2013-05-17 22:56:00,
2013-05-17 19:01:00,61.5,41.1,30.11,NNE,21,3.0,5.0,47,0.00,,,0.00,WeatherCatV1.15B25,2013-05-17 23:01:00,
2013-05-17 19:06:00,61.4,41.5,30.12,North,11,3.0,5.0,48,0.00,,,0.00,WeatherCatV1.15B25,2013-05-17 23:06:00,
2013-05-17 19:11:00,61.4,41.5,30.11,NNE,30,0.0,6.0,48,0.00,,,0.00,WeatherCatV1.15B25,2013-05-17 23:11:00,
2013-05-17 19:16:00,61.3,41.4,30.12,NNE,18,0.0,4.0,48,0.00,,,0.00,WeatherCatV1.15B25,2013-05-17 23:16:00,
2013-05-17 19:21:00,61.2,41.9,30.12,NE,44,0.0,11.0,49,0.00,,,0.00,WeatherCatV1.15B25,2013-05-17 23:21:00,
2013-05-17 19:26:00,61.0,41.7,30.12,NE,40,3.0,7.0,49,0.00,,,0.00,WeatherCatV1.15B25,2013-05-17 23:26:00,
2013-05-17 19:31:00,60.8,42.0,30.12,North,355,2.0,14.0,50,0.00,,,0.00,WeatherCatV1.15B25,2013-05-17 23:31:00,
2013-05-17 19:36:00,60.5,42.3,30.12,NNE,14,0.0,11.0,51,0.00,,,0.00,WeatherCatV1.15B25,2013-05-17 23:36:00,
2013-05-17 19:41:00,60.0,43.3,30.12,NNE,27,5.0,5.0,54,0.00,,,0.00,WeatherCatV1.15B25,2013-05-17 23:41:00,
2013-05-17 19:46:00,59.5,43.3,30.12,NE,37,5.0,8.0,55,0.00,,,0.00,WeatherCatV1.15B25,2013-05-17 23:46:00,
2013-05-17 19:51:00,59.1,43.4,30.12,NW,309,3.0,7.0,56,0.00,,,0.00,WeatherCatV1.15B25,2013-05-17 23:51:00,
2013-05-17 19:56:00,59.0,43.8,30.12,North,0,3.0,9.0,57,0.00,,,0.00,WeatherCatV1.15B25,2013-05-17 23:56:00,
2013-05-17 20:01:00,58.8,44.1,30.12,NE,40,4.0,8.0,58,0.00,,,0.00,WeatherCatV1.15B25,2013-05-18 00:01:00,
2013-05-17 20:06:00,58.7,44.4,30.12,NNE,17,0.0,4.0,59,0.00,,,0.00,WeatherCatV1.15B25,2013-05-18 00:06:00,
2013-05-17 20:11:00,58.5,44.2,30.12,SSE,168,3.0,6.0,59,0.00,,,0.00,WeatherCatV1.15B25,2013-05-18 00:11:00,
2013-05-17 20:16:00,58.3,44.0,30.12,NE,55,2.0,5.0,59,0.00,,,0.00,WeatherCatV1.15B25,2013-05-18 00:16:00,
2013-05-17 20:21:00,58.2,44.4,30.12,NNE,15,2.0,3.0,60,0.00,,,0.00,WeatherCatV1.15B25,2013-05-18 00:21:00,
2013-05-17 20:26:00,58.1,44.3,30.12,North,349,3.0,7.0,60,0.00,,,0.00,WeatherCatV1.15B25,2013-05-18 00:26:00,
2013-05-17 20:31:00,58.1,44.3,30.12,North,349,1.0,3.0,60,0.00,,,0.00,WeatherCatV1.15B25,2013-05-18 00:31:00,
2013-05-17 20:36:00,58.1,44.3,30.13,North,5,0.0,6.0,60,0.00,,,0.00,WeatherCatV1.15B25,2013-05-18 00:36:00,
2013-05-17 20:41:00,58.1,44.3,30.13,North,355,1.0,7.0,60,0.00,,,0.00,WeatherCatV1.15B25,2013-05-18 00:41:00,
2013-05-17 20:46:00,58.2,44.4,30.13,NE,43,0.0,6.0,60,0.00,,,0.00,WeatherCatV1.15B25,2013-05-18 00:46:00,
2013-05-17 20:51:00,58.2,44.4,30.13,NE,47,0.0,2.0,60,0.00,,,0.00,WeatherCatV1.15B25,2013-05-18 00:51:00,
2013-05-17 20:56:00,58.4,44.6,30.13,NE,36,2.0,3.0,60,0.00,,,0.00,WeatherCatV1.15B25,2013-05-18 00:56:00,
2013-05-17 21:01:00,58.5,45.1,30.13,NNW,342,3.0,5.0,61,0.00,,,0.00,WeatherCatV1.15B25,2013-05-18 01:01:00,
2013-05-17 21:06:00,58.5,45.1,30.13,NNE,26,2.0,6.0,61,0.00,,,0.00,WeatherCatV1.15B25,2013-05-18 01:06:00,
2013-05-17 21:11:00,58.6,45.2,30.13,NW,324,0.0,3.0,61,0.00,,,0.00,WeatherCatV1.15B25,2013-05-18 01:11:00,
2013-05-17 21:16:00,58.6,45.2,30.14,NNW,327,5.0,7.0,61,0.00,,,0.00,WeatherCatV1.15B25,2013-05-18 01:16:00,
2013-05-17 21:21:00,58.5,45.5,30.14,NNE,30,0.0,3.0,62,0.00,,,0.00,WeatherCatV1.15B25,2013-05-18 01:21:00,
2013-05-17 21:26:00,58.5,45.5,30.14,North,10,3.0,4.0,62,0.00,,,0.00,WeatherCatV1.15B25,2013-05-18 01:26:00,
2013-05-17 21:31:00,58.5,45.5,30.14,NE,36,1.0,4.0,62,0.00,,,0.00,WeatherCatV1.15B25,2013-05-18 01:31:00,
2013-05-17 21:36:00,58.7,44.8,30.14,NNE,28,0.0,5.0,60,0.00,,,0.00,WeatherCatV1.15B25,2013-05-18 01:36:00,
2013-05-17 21:41:00,58.8,44.9,30.14,SW,215,0.0,2.0,60,0.00,,,0.00,WeatherCatV1.15B25,2013-05-18 01:41:00,
2013-05-17 21:46:00,58.8,44.9,30.14,NE,52,0.0,3.0,60,0.00,,,0.00,WeatherCatV1.15B25,2013-05-18 01:46:00,
2013-05-17 21:51:00,58.8,44.5,30.15,NNE,31,0.0,3.0,59,0.00,,,0.00,WeatherCatV1.15B25,2013-05-18 01:51:00,
2013-05-17 21:56:00,58.9,44.6,30.15,North,5,3.0,4.0,59,0.00,,,0.00,WeatherCatV1.15B25,2013-05-18 01:56:00,
2013-05-17 22:01:00,58.9,44.6,30.15,NNW,343,0.0,4.0,59,0.00,,,0.00,WeatherCatV1.15B25,2013-05-18 02:01:00,
2013-05-17 22:06:00,58.9,44.6,30.14,NNE,19,0.0,6.0,59,0.00,,,0.00,WeatherCatV1.15B25,2013-05-18 02:06:00,
2013-05-17 22:11:00,58.8,44.5,30.15,NNE,30,0.0,4.0,59,0.00,,,0.00,WeatherCatV1.15B25,2013-05-18 02:11:00,
2013-05-17 22:16:00,58.7,44.8,30.15,NNW,337,2.0,5.0,60,0.00,,,0.00,WeatherCatV1.15B25,2013-05-18 02:16:00,
2013-05-17 22:21:00,58.4,45.4,30.15,NE,48,0.0,3.0,62,0.00,,,0.00,WeatherCatV1.15B25,2013-05-18 02:21:00,
2013-05-17 22:26:00,58.1,46.0,30.15,North,355,0.0,2.0,64,0.00,,,0.00,WeatherCatV1.15B25,2013-05-18 02:26:00,
2013-05-17 22:31:00,57.6,45.9,30.15,NE,53,0.0,4.0,65,0.00,,,0.00,WeatherCatV1.15B25,2013-05-18 02:31:00,
2013-05-17 22:36:00,57.1,46.2,30.16,NW,311,4.0,4.0,67,0.00,,,0.00,WeatherCatV1.15B25,2013-05-18 02:36:00,
2013-05-17 22:41:00,56.8,46.0,30.15,NNW,340,4.0,6.0,67,0.00,,,0.00,WeatherCatV1.15B25,2013-05-18 02:41:00,
2013-05-17 22:46:00,56.7,45.9,30.16,North,0,0.0,0.0,67,0.00,,,0.00,WeatherCatV1.15B25,2013-05-18 02:46:00,
2013-05-17 22:51:00,56.6,45.8,30.16,North,355,1.0,1.0,67,0.00,,,0.00,WeatherCatV1.15B25,2013-05-18 02:51:00,
2013-05-17 22:56:00,56.6,45.4,30.16,NNE,16,0.0,5.0,66,0.00,,,0.00,WeatherCatV1.15B25,2013-05-18 02:56:00,
2013-05-17 23:01:00,56.7,45.5,30.16,NE,34,2.0,3.0,66,0.00,,,0.00,WeatherCatV1.15B25,2013-05-18 03:01:00,
2013-05-17 23:06:00,56.7,45.5,30.15,NNW,336,1.0,7.0,66,0.00,,,0.00,WeatherCatV1.15B25,2013-05-18 03:06:00,
2013-05-17 23:11:00,56.7,45.5,30.15,NE,39,0.0,6.0,66,0.00,,,0.00,WeatherCatV1.15B25,2013-05-18 03:11:00,
2013-05-17 23:16:00,56.8,45.6,30.15,NNW,337,2.0,6.0,66,0.00,,,0.00,WeatherCatV1.15B25,2013-05-18 03:16:00,
2013-05-17 23:21:00,56.9,45.3,30.15,North,0,2.0,7.0,65,0.00,,,0.00,WeatherCatV1.15B25,2013-05-18 03:21:00,
2013-05-17 23:26:00,56.9,45.3,30.15,NNE,28,0.0,5.0,65,0.00,,,0.00,WeatherCatV1.15B25,2013-05-18 03:26:00,
2013-05-17 23:31:00,56.9,45.7,30.15,NE,43,2.0,4.0,66,0.00,,,0.00,WeatherCatV1.15B25,2013-05-18 03:31:00,
2013-05-17 23:36:00,56.9,45.7,30.15,NNE,26,0.0,3.0,66,0.00,,,0.00,WeatherCatV1.15B25,2013-05-18 03:36:00,
2013-05-17 23:41:00,56.9,45.7,30.15,NNW,341,1.0,5.0,66,0.00,,,0.00,WeatherCatV1.15B25,2013-05-18 03:41:00,
2013-05-17 23:46:00,56.8,46.0,30.14,NE,53,0.0,0.0,67,0.00,,,0.00,WeatherCatV1.15B25,2013-05-18 03:46:00,
2013-05-17 23:51:00,56.6,45.8,30.15,NNE,18,1.0,3.0,67,0.00,,,0.00,WeatherCatV1.15B25,2013-05-18 03:51:00,
2013-05-17 23:56:00,56.3,45.9,30.15,NNW,342,2.0,4.0,68,0.00,,,0.00,WeatherCatV1.15B25,2013-05-18 03:56:00,